createdAt,value
2023-06-19T00:01:03.597Z,70.39
2023-06-19T00:06:38.793Z,71.12
2023-06-19T00:12:10.469Z,70.76
2023-06-19T00:17:42.308Z,71.79
2023-06-19T00:23:14.071Z,72.13
2023-06-19T00:28:45.710Z,72.0
2023-06-19T00:34:17.374Z,72.57
2023-06-19T00:39:49.129Z,72.27
2023-06-19T00:45:20.843Z,72.04
2023-06-19T00:50:52.560Z,71.72
2023-06-19T00:56:24.278Z,71.6
2023-06-19T01:01:56.620Z,71.54
2023-06-19T01:07:32.015Z,72.87
2023-06-19T01:13:03.818Z,73.91
2023-06-19T01:18:35.517Z,73.36
2023-06-19T01:24:07.368Z,73.52
2023-06-19T01:29:39.013Z,74.38
2023-06-19T01:35:10.757Z,74.57
2023-06-19T01:40:42.483Z,75.38
2023-06-19T01:46:14.158Z,77.37
2023-06-19T01:51:45.923Z,79.13
2023-06-19T01:57:17.636Z,80.13
2023-06-19T02:02:49.431Z,80.73
2023-06-19T02:08:27.442Z,81.8
2023-06-19T02:13:59.164Z,82.18
2023-06-19T02:19:33.739Z,83.19
2023-06-19T02:25:06.044Z,83.34
2023-06-19T02:30:37.325Z,82.94
2023-06-19T02:36:08.825Z,81.57
2023-06-19T02:47:12.361Z,82.28
2023-06-19T02:58:15.818Z,82.94
2023-06-19T03:03:47.570Z,82.22
2023-06-19T03:09:23.655Z,82.31
2023-06-19T03:14:55.548Z,81.98
2023-06-19T03:20:27.773Z,81.87
2023-06-19T03:25:58.714Z,82.3
2023-06-19T03:31:30.449Z,81.42
2023-06-19T03:37:02.220Z,81.37
2023-06-19T03:42:34.109Z,81.04
2023-06-19T03:48:05.826Z,80.32
2023-06-19T03:53:37.400Z,81.38
2023-06-19T03:59:09.075Z,81.71
2023-06-19T04:04:41.043Z,82.23
2023-06-19T04:10:16.906Z,83.88
2023-06-19T04:15:51.669Z,84.99
2023-06-19T04:21:20.395Z,86.28
2023-06-19T04:26:52.104Z,87.94
2023-06-19T04:32:23.918Z,88.45
2023-06-19T04:37:55.585Z,88.68
2023-06-19T04:43:27.243Z,89.02
2023-06-19T04:48:58.902Z,90.27
2023-06-19T04:54:30.642Z,90.12
2023-06-19T05:00:02.630Z,90.78
2023-06-19T05:05:34.183Z,90.84
2023-06-19T05:11:10.204Z,91.92
2023-06-19T05:16:42.001Z,91.73
2023-06-19T05:22:13.686Z,91.29
2023-06-19T05:27:45.275Z,91.15
2023-06-19T05:33:17.223Z,91.1
2023-06-19T05:38:48.857Z,90.55
2023-06-19T05:44:20.694Z,91.55
2023-06-19T05:49:52.267Z,91.75
2023-06-19T05:55:24.147Z,89.74
2023-06-19T06:00:55.724Z,90.87
2023-06-19T06:06:27.520Z,89.96
2023-06-19T06:12:03.530Z,90.05
2023-06-19T06:17:35.287Z,91.2
2023-06-19T06:23:07.087Z,90.8
2023-06-19T06:28:38.742Z,89.57
2023-06-19T06:34:10.596Z,89.67
2023-06-19T06:39:42.524Z,88.78
2023-06-19T06:45:13.818Z,87.66
2023-06-19T06:50:45.547Z,87.0
2023-06-19T06:56:17.285Z,85.28
2023-06-19T07:01:49.060Z,85.05
2023-06-19T07:07:20.703Z,83.78
2023-06-19T07:12:57.045Z,84.58
2023-06-19T07:18:28.617Z,83.88
2023-06-19T07:24:00.537Z,82.86
2023-06-19T07:29:32.143Z,81.96
2023-06-19T07:35:03.846Z,81.42
2023-06-19T07:40:35.454Z,82.16
2023-06-19T07:46:07.278Z,80.55
2023-06-19T07:51:38.968Z,81.73
2023-06-19T07:57:10.923Z,82.17
2023-06-19T08:02:42.504Z,80.43
2023-06-19T08:08:13.981Z,81.36
2023-06-19T08:13:52.146Z,82.01
2023-06-19T08:19:23.984Z,81.14
2023-06-19T08:24:55.560Z,81.96
2023-06-19T08:30:27.885Z,80.14
2023-06-19T08:35:59.045Z,78.5
2023-06-19T08:41:30.762Z,77.29
2023-06-19T08:47:02.492Z,77.95
2023-06-19T08:52:34.210Z,75.17
2023-06-19T08:58:05.997Z,74.67
2023-06-19T09:03:37.709Z,77.34
2023-06-19T09:09:09.345Z,77.41
2023-06-19T09:14:45.492Z,76.77
2023-06-19T09:20:17.497Z,77.27
2023-06-19T09:25:48.944Z,76.56
2023-06-19T09:31:20.551Z,74.86
2023-06-19T09:36:52.352Z,75.68
2023-06-19T09:42:24.102Z,74.63
2023-06-19T09:47:55.888Z,74.56
2023-06-19T09:53:27.490Z,75.72
2023-06-19T09:58:59.339Z,74.85
2023-06-19T10:04:30.984Z,75.89
2023-06-19T10:10:02.738Z,75.27
2023-06-19T10:15:40.780Z,75.3
2023-06-19T10:21:12.382Z,76.6
2023-06-19T10:26:44.222Z,75.57
2023-06-19T10:32:15.922Z,77.54
2023-06-19T10:37:47.703Z,76.17
2023-06-19T10:43:19.408Z,76.65
2023-06-19T10:48:51.117Z,77.08
2023-06-19T10:54:22.759Z,76.28
2023-06-19T10:59:54.527Z,75.69
2023-06-19T11:05:26.189Z,75.99
2023-06-19T11:10:58.010Z,74.71
2023-06-19T11:16:34.106Z,75.59
2023-06-19T11:22:05.809Z,74.08
2023-06-19T11:27:37.525Z,72.64
2023-06-19T11:33:09.304Z,72.9
2023-06-19T11:38:41.012Z,72.1
2023-06-19T11:44:12.710Z,71.28
2023-06-19T11:49:44.430Z,71.46
2023-06-19T11:55:16.157Z,71.41
2023-06-19T12:00:47.935Z,71.73
2023-06-19T12:06:19.644Z,71.05
2023-06-19T12:11:51.350Z,72.36
2023-06-19T12:17:27.460Z,72.35
2023-06-19T12:22:59.137Z,72.37
2023-06-19T12:28:30.903Z,72.37
2023-06-19T12:34:25.376Z,71.36
2023-06-19T12:39:34.324Z,70.66
2023-06-19T12:45:06.013Z,70.3
2023-06-19T12:50:37.748Z,70.59
2023-06-19T12:56:14.470Z,69.47
2023-06-19T13:01:41.781Z,68.95
2023-06-19T13:07:12.946Z,68.28
2023-06-19T13:12:45.094Z,68.62
2023-06-19T13:18:20.719Z,68.5
2023-06-19T13:23:52.525Z,68.39
2023-06-19T13:29:24.201Z,68.43
2023-06-19T13:34:56.005Z,66.81
2023-06-19T13:40:27.642Z,68.46
2023-06-19T13:45:59.284Z,68.15
2023-06-19T13:51:31.111Z,68.78
2023-06-19T13:57:02.771Z,68.12
2023-06-19T14:02:35.103Z,67.73
2023-06-19T14:08:06.298Z,68.95
2023-06-19T14:13:37.984Z,68.15
2023-06-19T14:19:14.842Z,69.13
2023-06-19T14:24:46.027Z,68.97
2023-06-19T14:30:17.520Z,67.84
2023-06-19T14:35:53.231Z,68.19
2023-06-19T14:41:20.969Z,68.46
2023-06-19T14:46:52.675Z,70.11
2023-06-19T14:52:24.336Z,68.87
2023-06-19T14:57:56.016Z,68.78
2023-06-19T15:03:28.200Z,68.0
2023-06-19T15:09:04.950Z,68.21
2023-06-19T15:14:31.238Z,67.61
2023-06-19T15:20:09.427Z,68.27
2023-06-19T15:25:41.185Z,66.54
2023-06-19T15:31:12.887Z,67.88
2023-06-19T15:36:44.884Z,69.89
2023-06-19T15:42:16.303Z,70.97
2023-06-19T15:47:48.132Z,70.85
2023-06-19T15:53:19.755Z,72.82
2023-06-19T15:58:51.361Z,73.59
2023-06-19T16:04:23.266Z,75.55
2023-06-19T16:09:56.360Z,76.05
2023-06-19T16:15:26.665Z,74.91
2023-06-19T16:21:02.752Z,76.7
2023-06-19T16:26:34.481Z,82.35
2023-06-19T16:32:11.424Z,84.01
2023-06-19T16:37:37.870Z,83.98
2023-06-19T16:43:09.679Z,84.43
2023-06-19T16:48:41.375Z,80.35
2023-06-19T16:54:13.081Z,79.4
2023-06-19T16:59:44.944Z,79.65
2023-06-19T17:05:16.546Z,80.38
2023-06-19T17:10:48.297Z,80.84
2023-06-19T17:16:20.098Z,81.19
2023-06-19T17:21:58.093Z,79.99
2023-06-19T17:27:29.896Z,80.77
2023-06-19T17:33:01.692Z,80.67
2023-06-19T17:38:33.233Z,80.93
2023-06-19T17:44:04.999Z,82.1
2023-06-19T17:49:36.705Z,81.61
2023-06-19T17:55:08.456Z,82.03
2023-06-19T18:00:40.174Z,82.83
2023-06-19T18:06:11.915Z,83.55
2023-06-19T18:11:44.367Z,83.91
2023-06-19T18:17:15.639Z,83.07
2023-06-19T18:22:51.378Z,83.49
2023-06-19T18:28:23.107Z,83.91
2023-06-19T18:33:55.408Z,84.67
2023-06-19T18:39:26.698Z,84.8
2023-06-19T18:44:58.403Z,85.91
2023-06-19T18:50:29.962Z,86.08
2023-06-19T18:56:01.747Z,86.31
2023-06-19T19:01:33.760Z,87.08
2023-06-19T19:07:05.160Z,87.33
2023-06-19T19:12:36.908Z,87.69
2023-06-19T19:18:08.721Z,88.19
2023-06-19T19:23:44.727Z,88.68
2023-06-19T19:29:16.468Z,89.24
2023-06-19T19:34:48.123Z,90.22
2023-06-19T19:40:20.138Z,90.55
2023-06-19T19:45:51.825Z,92.14
2023-06-19T19:51:23.351Z,92.2
2023-06-19T19:56:55.067Z,91.71
2023-06-19T20:02:26.945Z,92.18
2023-06-19T20:07:58.446Z,93.19
2023-06-19T20:13:30.156Z,93.35
2023-06-19T20:19:01.900Z,94.35
2023-06-19T20:24:39.176Z,94.24
2023-06-19T20:30:09.740Z,95.07
2023-06-19T20:35:41.546Z,95.63
2023-06-19T20:41:13.195Z,96.0
2023-06-19T20:46:45.223Z,95.47
2023-06-19T20:52:16.634Z,95.72
2023-06-19T20:57:48.365Z,95.75
2023-06-19T21:03:20.507Z,96.46
2023-06-19T21:08:51.897Z,96.28
2023-06-19T21:14:23.642Z,96.59
2023-06-19T21:19:55.326Z,96.87
2023-06-19T21:25:31.341Z,97.77
2023-06-19T21:31:03.082Z,97.48
2023-06-19T21:36:34.814Z,97.18
2023-06-19T21:42:10.531Z,97.04
2023-06-19T21:47:38.298Z,96.94
2023-06-19T21:53:09.988Z,97.76
2023-06-19T21:58:41.652Z,97.76
2023-06-19T22:04:13.480Z,98.15
2023-06-19T22:09:45.066Z,97.89
2023-06-19T22:15:16.859Z,98.58
2023-06-19T22:20:48.533Z,99.12
2023-06-19T22:26:26.602Z,99.01
2023-06-19T22:31:58.523Z,99.49
2023-06-19T22:37:30.171Z,99.97
2023-06-19T22:43:02.123Z,100.0
2023-06-19T22:48:33.572Z,100.0
2023-06-19T22:54:05.319Z,100.0
2023-06-19T22:59:37.091Z,100.0
2023-06-19T23:05:08.735Z,100.0
2023-06-19T23:10:40.437Z,100.0
2023-06-19T23:16:12.115Z,100.0
2023-06-19T23:21:43.891Z,100.0
2023-06-19T23:27:19.987Z,100.0
2023-06-19T23:32:51.990Z,100.0
2023-06-19T23:38:23.524Z,100.0
2023-06-19T23:43:55.099Z,100.0
2023-06-19T23:49:26.857Z,100.0
2023-06-19T23:54:58.560Z,100.0
